Time;durP1;ratioP1;P1;durP2;ratioP2;P2;SDS_P1;SDS_P2;PMS_P1;PMS_P2;Temp;Humidity;BMP_temperature;BMP_pressure;BME280_temperature;BME280_humidity;BME280_pressure;Samples;Min_cycle;Max_cycle;Signal;HPM_P1;HPM_P2
2023/04/01 00:00:54;;;;;;;1.55;0.50;;;;;;;;;;10364466;28;20250;-79
2023/04/01 00:05:56;;;;;;;0.43;0.43;;;;;;;;;;10345922;28;20226;-83
2023/04/01 00:10:57;;;;;;;2.03;0.30;;;;;;;;;;10347194;28;20658;-81
2023/04/01 00:15:58;;;;;;;0.45;0.30;;;;;;;;;;10374557;28;20280;-81
2023/04/01 00:20:59;;;;;;;0.68;0.60;;;;;;;;;;10349670;28;20702;-81
2023/04/01 00:26:01;;;;;;;0.30;0.30;;;;;;;;;;10355460;28;20310;-82
2023/04/01 00:31:06;;;;;;;0.68;0.40;;;;;;;;;;10360886;28;20247;-81
2023/04/01 00:36:08;;;;;;;0.30;0.30;;;;;;;;;;10363512;28;20231;-81
2023/04/01 00:41:14;;;;;;;1.38;0.40;;;;;;;;;;10362569;28;20218;-81
2023/04/01 00:46:15;;;;;;;0.38;0.38;;;;;;;;;;10351248;28;20231;-81
2023/04/01 00:51:18;;;;;;;0.47;0.47;;;;;;;;;;10337459;28;20883;-81
2023/04/01 00:56:22;;;;;;;0.63;0.60;;;;;;;;;;10360575;28;20823;-82
2023/04/01 01:01:24;;;;;;;1.30;0.47;;;;;;;;;;10353993;28;20309;-81
2023/04/01 01:06:28;;;;;;;0.60;0.60;;;;;;;;;;10369910;28;20219;-81
2023/04/01 01:11:50;;;;;;;1.67;0.55;;;;;;;;;;10370538;28;20943;-82
2023/04/01 01:16:59;;;;;;;1.77;0.70;;;;;;;;;;10350962;28;20255;-82
2023/04/01 01:22:00;;;;;;;2.30;0.77;;;;;;;;;;10376260;28;20227;-82
2023/04/01 01:27:04;;;;;;;1.35;0.60;;;;;;;;;;10360220;28;20569;-82
2023/04/01 01:32:13;;;;;;;0.95;0.70;;;;;;;;;;10344505;28;20319;-82
2023/04/01 01:37:18;;;;;;;1.45;0.63;;;;;;;;;;10347321;28;21003;-82
2023/04/01 01:42:21;;;;;;;1.50;0.60;;;;;;;;;;10367857;28;20777;-83
2023/04/01 01:47:22;;;;;;;1.85;0.70;;;;;;;;;;10365948;28;20234;-81
2023/04/01 01:52:24;;;;;;;1.35;0.57;;;;;;;;;;10333061;28;20339;-81
2023/04/01 01:57:29;;;;;;;1.77;0.77;;;;;;;;;;10354463;28;20232;-79
2023/04/01 02:02:33;;;;;;;0.68;0.68;;;;;;;;;;10339398;28;20334;-80
2023/04/01 02:07:36;;;;;;;0.80;0.80;;;;;;;;;;10344550;28;20627;-80
2023/04/01 02:12:38;;;;;;;1.33;0.60;;;;;;;;;;10372284;28;20230;-79
2023/04/01 02:17:42;;;;;;;0.50;0.50;;;;;;;;;;10357521;28;20284;-80
2023/04/01 02:22:47;;;;;;;1.95;0.50;;;;;;;;;;10355162;28;20329;-80
2023/04/01 02:27:48;;;;;;;0.50;0.50;;;;;;;;;;10335844;28;20226;-82
2023/04/01 02:32:49;;;;;;;1.65;0.50;;;;;;;;;;10351775;28;20235;-80
2023/04/01 02:37:52;;;;;;;0.80;0.38;;;;;;;;;;10349266;28;20708;-82
2023/04/01 02:42:53;;;;;;;0.88;0.57;;;;;;;;;;10362439;28;20226;-82
2023/04/01 02:47:54;;;;;;;1.40;0.70;;;;;;;;;;10330176;28;20992;-81
2023/04/01 02:52:56;;;;;;;1.02;0.80;;;;;;;;;;10319689;28;20306;-81
2023/04/01 02:57:57;;;;;;;2.60;0.65;;;;;;;;;;10361582;28;20808;-82
2023/04/01 03:02:58;;;;;;;3.78;0.80;;;;;;;;;;10346365;28;20667;-80
2023/04/01 03:07:59;;;;;;;1.48;0.65;;;;;;;;;;10335892;28;20232;-80
2023/04/01 03:13:00;;;;;;;2.70;0.82;;;;;;;;;;10356101;28;20314;-82
2023/04/01 03:18:02;;;;;;;0.90;0.90;;;;;;;;;;10358587;28;21133;-82
2023/04/01 03:23:03;;;;;;;1.02;0.80;;;;;;;;;;10363481;28;20226;-81
2023/04/01 03:28:04;;;;;;;2.45;1.13;;;;;;;;;;10342642;28;20230;-79
2023/04/01 03:33:06;;;;;;;1.85;0.82;;;;;;;;;;10361476;28;20227;-78
2023/04/01 03:38:07;;;;;;;3.55;0.90;;;;;;;;;;10369751;28;20853;-78
2023/04/01 03:43:09;;;;;;;2.75;1.13;;;;;;;;;;10353573;28;20230;-77
2023/04/01 03:48:12;;;;;;;3.15;1.20;;;;;;;;;;10343965;28;20228;-80
2023/04/01 03:53:13;;;;;;;2.30;1.00;;;;;;;;;;10350415;28;20385;-81
2023/04/01 03:58:17;;;;;;;1.90;0.80;;;;;;;;;;10348121;28;20819;-79
2023/04/01 04:03:18;;;;;;;1.00;1.00;;;;;;;;;;10365053;28;20220;-81
2023/04/01 04:08:21;;;;;;;1.10;1.00;;;;;;;;;;10378657;28;20258;-81
2023/04/01 04:13:22;;;;;;;2.25;1.17;;;;;;;;;;10366472;28;20224;-81
2023/04/01 04:18:30;;;;;;;3.13;1.30;;;;;;;;;;10351387;28;20277;-81
2023/04/01 04:23:33;;;;;;;2.50;1.05;;;;;;;;;;10377000;28;20245;-82
2023/04/01 04:28:34;;;;;;;5.18;1.33;;;;;;;;;;10353918;28;20406;-81
2023/04/01 04:33:36;;;;;;;1.30;1.17;;;;;;;;;;10355919;28;20224;-79
2023/04/01 04:38:38;;;;;;;1.02;0.88;;;;;;;;;;10357726;28;20229;-81
2023/04/01 04:43:40;;;;;;;7.40;1.48;;;;;;;;;;10350428;28;20231;-80
2023/04/01 04:48:43;;;;;;;3.28;0.98;;;;;;;;;;10344749;28;20232;-82
2023/04/01 04:53:45;;;;;;;0.82;0.80;;;;;;;;;;10335433;28;20618;-81
2023/04/01 04:58:46;;;;;;;0.90;0.90;;;;;;;;;;10360371;28;20256;-80
2023/04/01 05:03:52;;;;;;;2.25;1.10;;;;;;;;;;10329896;28;20416;-81
2023/04/01 05:08:53;;;;;;;1.45;0.82;;;;;;;;;;10353174;28;20228;-82
2023/04/01 05:13:54;;;;;;;3.03;0.73;;;;;;;;;;10361112;28;20698;-82
2023/04/01 05:18:55;;;;;;;1.05;1.05;;;;;;;;;;10335203;28;21250;-82
2023/04/01 05:23:57;;;;;;;1.65;1.00;;;;;;;;;;10355536;28;20223;-82
2023/04/01 05:28:59;;;;;;;2.53;1.27;;;;;;;;;;10347204;28;20223;-82
2023/04/01 05:34:00;;;;;;;0.68;0.68;;;;;;;;;;10341588;28;20346;-80
2023/04/01 05:39:03;;;;;;;1.25;0.90;;;;;;;;;;10345591;28;20547;-82
2023/04/01 05:44:04;;;;;;;0.85;0.85;;;;;;;;;;10353607;28;20255;-82
2023/04/01 05:49:14;;;;;;;1.08;0.80;;;;;;;;;;10323985;28;20254;-82
2023/04/01 05:54:16;;;;;;;1.40;0.73;;;;;;;;;;10321207;28;20220;-84
2023/04/01 05:59:20;;;;;;;1.48;0.70;;;;;;;;;;10345195;28;20338;-81
2023/04/01 06:04:21;;;;;;;0.77;0.70;;;;;;;;;;10353407;28;20322;-82
2023/04/01 06:09:26;;;;;;;0.98;0.95;;;;;;;;;;10360977;28;20254;-81
2023/04/01 06:14:48;;;;;;;1.40;0.80;;;;;;;;;;10375779;28;20223;-81
2023/04/01 06:19:52;;;;;;;1.10;0.70;;;;;;;;;;10348798;28;20270;-82
2023/04/01 06:25:12;;;;;;;1.30;0.70;;;;;;;;;;10375696;28;20224;-81
2023/04/01 06:30:22;;;;;;;2.28;0.85;;;;;;;;;;10364897;28;20214;-81
2023/04/01 06:35:32;;;;;;;0.85;0.85;;;;;;;;;;10351494;28;20985;-80
2023/04/01 06:40:36;;;;;;;1.27;1.10;;;;;;;;;;10338033;28;20283;-81
2023/04/01 06:45:50;;;;;;;0.70;0.70;;;;;;;;;;10342892;28;20566;-82
2023/04/01 06:51:19;;;;;;;1.30;1.25;;;;;;;;;;10367789;28;20247;-81
2023/04/01 06:56:46;;;;;;;0.85;0.85;;;;;;;;;;10343558;28;20643;-83
2023/04/01 07:01:59;;;;;;;1.05;0.75;;;;;;;;;;10357251;28;20227;-83
2023/04/01 07:07:05;;;;;;;1.17;1.08;;;;;;;;;;10365537;28;20227;-82
2023/04/01 07:12:11;;;;;;;0.70;0.70;;;;;;;;;;10348019;28;20254;-82
2023/04/01 07:17:33;;;;;;;0.50;0.50;;;;;;;;;;10375462;28;20257;-83
2023/04/01 07:22:44;;;;;;;1.38;0.73;;;;;;;;;;10355747;28;20239;-82
2023/04/01 07:28:06;;;;;;;0.85;0.73;;;;;;;;;;10348390;28;20624;-82
2023/04/01 07:33:15;;;;;;;2.90;0.50;;;;;;;;;;10343523;28;20726;-82
2023/04/01 07:38:16;;;;;;;1.27;0.68;;;;;;;;;;10348539;28;20240;-80
2023/04/01 07:43:33;;;;;;;2.15;0.60;;;;;;;;;;10344271;28;20226;-81
2023/04/01 07:49:13;;;;;;;0.50;0.50;;;;;;;;;;10355603;28;20629;-83
2023/04/01 07:54:17;;;;;;;0.60;0.60;;;;;;;;;;10346364;28;20251;-82
2023/04/01 07:59:26;;;;;;;1.30;0.70;;;;;;;;;;10363177;28;20228;-81
2023/04/01 08:04:42;;;;;;;1.50;0.70;;;;;;;;;;10352521;28;20592;-82
2023/04/01 08:10:04;;;;;;;0.60;0.60;;;;;;;;;;10342640;28;20772;-82
2023/04/01 08:15:43;;;;;;;1.90;0.63;;;;;;;;;;10376359;28;20257;-80
2023/04/01 08:21:04;;;;;;;1.83;0.40;;;;;;;;;;10354214;28;20392;-82
2023/04/01 08:26:10;;;;;;;0.40;0.40;;;;;;;;;;10359197;28;20282;-80
2023/04/01 08:31:34;;;;;;;0.35;0.30;;;;;;;;;;10343560;28;20630;-82
2023/04/01 08:36:37;;;;;;;2.83;0.40;;;;;;;;;;10340099;28;20227;-83
2023/04/01 08:41:48;;;;;;;0.20;0.20;;;;;;;;;;10337743;28;20222;-83
2023/04/01 08:47:30;;;;;;;0.30;0.30;;;;;;;;;;10366762;28;21034;-83
2023/04/01 08:52:35;;;;;;;0.73;0.40;;;;;;;;;;10361054;28;20662;-83
2023/04/01 08:57:50;;;;;;;1.67;0.50;;;;;;;;;;10362462;28;20369;-82
2023/04/01 09:03:19;;;;;;;1.13;0.40;;;;;;;;;;10365544;28;20842;-82
2023/04/01 09:08:23;;;;;;;1.35;0.32;;;;;;;;;;10362369;28;20233;-82
2023/04/01 09:13:42;;;;;;;1.60;0.35;;;;;;;;;;10372737;28;20765;-81
2023/04/01 09:18:44;;;;;;;1.35;0.43;;;;;;;;;;10364489;28;20227;-83
2023/04/01 09:23:54;;;;;;;0.40;0.30;;;;;;;;;;10360655;28;20250;-82
2023/04/01 09:29:14;;;;;;;0.52;0.30;;;;;;;;;;10370260;28;20237;-82
2023/04/01 09:34:27;;;;;;;1.95;0.30;;;;;;;;;;10351616;28;20402;-82
2023/04/01 09:39:39;;;;;;;0.40;0.40;;;;;;;;;;10356851;28;20235;-81
2023/04/01 09:44:49;;;;;;;1.13;0.40;;;;;;;;;;10350932;28;20812;-83
2023/04/01 09:50:13;;;;;;;1.50;0.30;;;;;;;;;;10366470;28;20503;-82
2023/04/01 09:55:26;;;;;;;0.73;0.30;;;;;;;;;;10357477;28;20239;-82
2023/04/01 10:00:43;;;;;;;0.85;0.30;;;;;;;;;;10375590;28;20721;-82
2023/04/01 10:05:45;;;;;;;0.45;0.40;;;;;;;;;;10372106;28;20750;-82
2023/04/01 10:11:06;;;;;;;1.27;0.50;;;;;;;;;;10366765;28;20220;-83
2023/04/01 10:16:28;;;;;;;0.80;0.50;;;;;;;;;;10368452;28;20227;-82
2023/04/01 10:21:48;;;;;;;0.30;0.30;;;;;;;;;;10361118;28;20227;-84
2023/04/01 10:27:07;;;;;;;0.20;0.20;;;;;;;;;;10360206;28;20231;-82
2023/04/01 10:32:59;;;;;;;0.65;0.30;;;;;;;;;;10386896;28;20219;-79
2023/04/01 10:38:20;;;;;;;2.15;0.45;;;;;;;;;;10356885;28;20282;-83
2023/04/01 10:43:41;;;;;;;0.55;0.20;;;;;;;;;;10371838;28;20596;-83
2023/04/01 10:48:55;;;;;;;0.20;0.20;;;;;;;;;;10357251;28;20284;-82
2023/04/01 10:54:19;;;;;;;0.43;0.20;;;;;;;;;;10356894;28;20222;-84
2023/04/01 10:59:54;;;;;;;0.30;0.30;;;;;;;;;;10347693;28;20665;-82
2023/04/01 11:05:23;;;;;;;0.28;0.28;;;;;;;;;;10370611;28;20597;-82
2023/04/01 11:10:55;;;;;;;0.50;0.25;;;;;;;;;;10376844;28;20254;-83
2023/04/01 11:16:14;;;;;;;0.40;0.32;;;;;;;;;;10379500;28;20227;-83
2023/04/01 11:21:32;;;;;;;0.98;0.20;;;;;;;;;;10368006;28;20230;-80
2023/04/01 11:26:52;;;;;;;0.25;0.22;;;;;;;;;;10348545;28;20223;-81
2023/04/01 11:32:22;;;;;;;0.73;0.38;;;;;;;;;;10367180;28;20227;-81
2023/04/01 11:37:26;;;;;;;0.40;0.40;;;;;;;;;;10382848;28;20736;-81
2023/04/01 11:42:53;;;;;;;1.17;0.40;;;;;;;;;;10383576;28;20257;-82
2023/04/01 11:48:29;;;;;;;0.20;0.20;;;;;;;;;;10362287;28;20293;-79
2023/04/01 11:53:45;;;;;;;0.22;0.20;;;;;;;;;;10376797;28;20243;-82
2023/04/01 11:58:56;;;;;;;0.28;0.20;;;;;;;;;;10368470;28;20231;-81
2023/04/01 12:04:16;;;;;;;0.30;0.22;;;;;;;;;;10351852;28;20703;-80
2023/04/01 12:09:23;;;;;;;0.95;0.35;;;;;;;;;;10356851;28;20238;-81
2023/04/01 12:14:36;;;;;;;1.05;0.30;;;;;;;;;;10374044;28;20341;-80
2023/04/01 12:19:50;;;;;;;1.17;0.20;;;;;;;;;;10355815;28;20338;-83
2023/04/01 12:25:03;;;;;;;2.28;0.30;;;;;;;;;;10357626;28;20219;-81
2023/04/01 12:30:19;;;;;;;0.30;0.28;;;;;;;;;;10355036;28;20219;-81
2023/04/01 12:35:23;;;;;;;0.20;0.20;;;;;;;;;;10382056;28;20273;-82
2023/04/01 12:40:50;;;;;;;0.20;0.20;;;;;;;;;;10352269;28;20228;-82
2023/04/01 12:46:02;;;;;;;0.20;0.20;;;;;;;;;;10367830;28;20605;-82
2023/04/01 12:51:16;;;;;;;0.20;0.20;;;;;;;;;;10363631;28;20219;-83
2023/04/01 12:56:26;;;;;;;0.10;0.10;;;;;;;;;;10363782;28;20697;-84
2023/04/01 13:01:46;;;;;;;0.98;0.20;;;;;;;;;;10364209;28;20242;-81
2023/04/01 13:07:13;;;;;;;0.10;0.10;;;;;;;;;;10376715;28;20239;-83
2023/04/01 13:12:33;;;;;;;0.95;0.10;;;;;;;;;;10369182;28;20250;-82
2023/04/01 13:17:34;;;;;;;0.10;0.10;;;;;;;;;;10371835;28;20250;-82
2023/04/01 13:22:38;;;;;;;0.38;0.10;;;;;;;;;;10357630;28;20761;-81
2023/04/01 13:27:44;;;;;;;0.08;0.08;;;;;;;;;;10357598;28;20231;-79
2023/04/01 13:32:48;;;;;;;0.25;0.10;;;;;;;;;;10379711;28;20219;-82
2023/04/01 13:37:55;;;;;;;0.20;0.20;;;;;;;;;;10378097;28;20243;-82
2023/04/01 13:43:00;;;;;;;0.98;0.45;;;;;;;;;;10368152;28;20219;-81
2023/04/01 13:48:19;;;;;;;0.57;0.57;;;;;;;;;;10366503;28;20228;-82
2023/04/01 13:53:23;;;;;;;0.70;0.70;;;;;;;;;;10354917;28;20646;-82
2023/04/01 13:58:51;;;;;;;0.70;0.70;;;;;;;;;;10380852;28;20231;-81
2023/04/01 14:04:11;;;;;;;0.40;0.40;;;;;;;;;;10333078;28;20220;-82
2023/04/01 14:09:21;;;;;;;0.50;0.50;;;;;;;;;;10342029;28;20223;-82
2023/04/01 14:14:35;;;;;;;1.23;0.60;;;;;;;;;;10355221;28;20251;-82
2023/04/01 14:19:36;;;;;;;0.80;0.80;;;;;;;;;;10370786;28;20226;-82
2023/04/01 14:24:46;;;;;;;0.75;0.75;;;;;;;;;;10363338;28;20606;-82
2023/04/01 14:29:57;;;;;;;0.80;0.80;;;;;;;;;;10379263;28;20220;-83
2023/04/01 14:35:17;;;;;;;0.60;0.60;;;;;;;;;;10359302;28;20215;-85
2023/04/01 14:40:36;;;;;;;0.70;0.70;;;;;;;;;;10363572;28;20220;-83
2023/04/01 14:45:46;;;;;;;1.05;1.05;;;;;;;;;;10380491;28;20234;-83
2023/04/01 14:50:50;;;;;;;1.20;1.20;;;;;;;;;;10345402;28;20223;-84
2023/04/01 14:55:55;;;;;;;1.77;1.70;;;;;;;;;;10331612;28;20227;-83
2023/04/01 15:01:15;;;;;;;1.65;1.65;;;;;;;;;;10344366;28;20219;-82
2023/04/01 15:06:28;;;;;;;1.15;1.15;;;;;;;;;;10345431;28;20230;-83
2023/04/01 15:11:42;;;;;;;1.13;1.13;;;;;;;;;;10356315;28;20208;-82
2023/04/01 15:16:46;;;;;;;1.35;1.35;;;;;;;;;;10371638;28;20317;-84
2023/04/01 15:21:56;;;;;;;1.33;1.33;;;;;;;;;;10339468;28;20247;-84
2023/04/01 15:27:09;;;;;;;1.55;1.55;;;;;;;;;;10360389;28;20318;-83
2023/04/01 15:32:15;;;;;;;2.90;2.75;;;;;;;;;;10338393;28;21167;-83
2023/04/01 15:37:16;;;;;;;1.52;1.40;;;;;;;;;;10342184;28;20227;-83
2023/04/01 15:42:17;;;;;;;1.70;1.63;;;;;;;;;;10354634;28;20315;-83
2023/04/01 15:47:25;;;;;;;1.15;1.15;;;;;;;;;;10336375;28;20222;-84
2023/04/01 15:52:49;;;;;;;1.35;1.35;;;;;;;;;;10343289;28;20666;-83
2023/04/01 15:58:09;;;;;;;1.92;1.92;;;;;;;;;;10346290;28;20228;-84
2023/04/01 16:03:13;;;;;;;1.27;1.27;;;;;;;;;;10361989;28;20220;-86
2023/04/01 16:08:23;;;;;;;1.35;1.35;;;;;;;;;;10370368;28;20857;-84
2023/04/01 16:13:47;;;;;;;1.25;1.25;;;;;;;;;;10382589;28;20560;-84
2023/04/01 16:18:48;;;;;;;0.98;0.98;;;;;;;;;;10347008;28;20227;-82
2023/04/01 16:23:52;;;;;;;1.02;1.02;;;;;;;;;;10365007;28;20230;-84
2023/04/01 16:28:56;;;;;;;0.98;0.98;;;;;;;;;;10364966;28;20215;-84
2023/04/01 16:34:09;;;;;;;1.05;0.80;;;;;;;;;;10357478;28;20240;-81
2023/04/01 16:39:29;;;;;;;1.30;1.15;;;;;;;;;;10342419;28;20871;-83
2023/04/01 16:44:30;;;;;;;1.23;1.23;;;;;;;;;;10350791;28;20227;-82
2023/04/01 16:49:33;;;;;;;1.27;1.27;;;;;;;;;;10355386;28;20278;-83
2023/04/01 16:54:47;;;;;;;1.20;1.20;;;;;;;;;;10360777;28;20219;-83
2023/04/01 17:00:18;;;;;;;0.65;0.65;;;;;;;;;;10378486;28;20305;-83
2023/04/01 17:05:21;;;;;;;1.48;1.38;;;;;;;;;;10357005;28;20223;-84
2023/04/01 17:10:25;;;;;;;1.00;1.00;;;;;;;;;;10364395;28;20355;-82
2023/04/01 17:15:31;;;;;;;1.05;1.05;;;;;;;;;;10382368;28;20232;-83
2023/04/01 17:20:44;;;;;;;1.35;1.30;;;;;;;;;;10371763;28;20211;-83
2023/04/01 17:25:47;;;;;;;1.13;1.13;;;;;;;;;;10381965;28;20322;-83
2023/04/01 17:30:54;;;;;;;1.10;1.10;;;;;;;;;;10365316;28;20884;-80
2023/04/01 17:35:59;;;;;;;1.10;1.00;;;;;;;;;;10346844;28;20282;-82
2023/04/01 17:41:05;;;;;;;0.60;0.57;;;;;;;;;;10356227;28;20232;-82
2023/04/01 17:46:24;;;;;;;1.10;1.00;;;;;;;;;;10385905;28;20228;-81
2023/04/01 17:51:36;;;;;;;3.03;0.63;;;;;;;;;;10369943;28;20758;-83
2023/04/01 17:56:44;;;;;;;0.60;0.60;;;;;;;;;;10363567;28;20263;-83
2023/04/01 18:01:55;;;;;;;1.02;0.93;;;;;;;;;;10373871;28;20224;-81
2023/04/01 18:07:15;;;;;;;1.83;1.77;;;;;;;;;;10339883;28;20230;-82
2023/04/01 18:12:30;;;;;;;1.05;1.05;;;;;;;;;;10356883;28;20330;-82
2023/04/01 18:17:43;;;;;;;0.63;0.50;;;;;;;;;;10375966;28;20238;-81
2023/04/01 18:22:46;;;;;;;0.65;0.65;;;;;;;;;;10382207;28;20223;-81
2023/04/01 18:27:49;;;;;;;0.73;0.63;;;;;;;;;;10346496;28;20228;-82
2023/04/01 18:33:02;;;;;;;0.68;0.68;;;;;;;;;;10355767;28;21160;-79
2023/04/01 18:38:20;;;;;;;0.77;0.60;;;;;;;;;;10363377;28;20376;-82
2023/04/01 18:43:37;;;;;;;0.50;0.50;;;;;;;;;;10354034;28;20227;-81
2023/04/01 18:48:48;;;;;;;0.73;0.73;;;;;;;;;;10343026;28;20223;-82
2023/04/01 18:53:55;;;;;;;0.60;0.60;;;;;;;;;;10339957;28;20243;-81
2023/04/01 18:58:59;;;;;;;0.90;0.80;;;;;;;;;;10366707;28;20706;-81
2023/04/01 19:04:16;;;;;;;0.60;0.60;;;;;;;;;;10329725;28;20223;-81
2023/04/01 19:09:22;;;;;;;0.50;0.50;;;;;;;;;;10362087;28;20238;-81
2023/04/01 19:14:45;;;;;;;0.70;0.70;;;;;;;;;;10339816;28;20223;-81
2023/04/01 19:19:52;;;;;;;1.52;0.40;;;;;;;;;;10359420;28;20278;-82
2023/04/01 19:25:00;;;;;;;0.50;0.50;;;;;;;;;;10344939;28;20700;-82
2023/04/01 19:30:25;;;;;;;0.73;0.73;;;;;;;;;;10354062;28;20227;-82
2023/04/01 19:35:45;;;;;;;0.63;0.60;;;;;;;;;;10331751;28;20728;-80
2023/04/01 19:41:01;;;;;;;0.95;0.60;;;;;;;;;;10333205;28;20996;-80
2023/04/01 19:46:07;;;;;;;0.65;0.50;;;;;;;;;;10356071;28;20222;-79
2023/04/01 19:51:16;;;;;;;0.60;0.60;;;;;;;;;;10343042;28;20220;-79
2023/04/01 19:56:21;;;;;;;2.03;0.93;;;;;;;;;;10339665;28;20227;-80
2023/04/01 20:01:31;;;;;;;1.90;1.48;;;;;;;;;;10357282;28;20821;-81
2023/04/01 20:06:35;;;;;;;1.02;1.02;;;;;;;;;;10367986;28;20240;-80
2023/04/01 20:11:42;;;;;;;2.53;0.98;;;;;;;;;;10358483;28;20310;-82
2023/04/01 20:16:50;;;;;;;0.90;0.90;;;;;;;;;;10358685;28;20227;-80
2023/04/01 20:21:51;;;;;;;1.58;1.35;;;;;;;;;;10345621;28;20425;-80
2023/04/01 20:27:01;;;;;;;1.75;1.60;;;;;;;;;;10331256;28;20227;-80
2023/04/01 20:32:28;;;;;;;1.20;1.20;;;;;;;;;;10365698;28;20219;-78
2023/04/01 20:37:35;;;;;;;1.27;1.23;;;;;;;;;;10338052;28;20230;-80
2023/04/01 20:42:58;;;;;;;1.98;1.08;;;;;;;;;;10348564;28;20235;-81
2023/04/01 20:48:10;;;;;;;1.25;1.25;;;;;;;;;;10334061;28;20821;-79
2023/04/01 20:53:23;;;;;;;4.60;1.50;;;;;;;;;;10321556;28;20219;-80
2023/04/01 20:58:43;;;;;;;1.38;1.38;;;;;;;;;;10356065;28;20267;-81
2023/04/01 21:04:13;;;;;;;1.83;1.73;;;;;;;;;;10345241;28;20264;-80
2023/04/01 21:09:23;;;;;;;1.30;1.30;;;;;;;;;;10371757;28;20227;-80
2023/04/01 21:14:47;;;;;;;4.32;2.58;;;;;;;;;;10344756;28;20289;-80
2023/04/01 21:19:56;;;;;;;5.10;2.03;;;;;;;;;;10341370;28;20342;-80
2023/04/01 21:25:17;;;;;;;2.08;1.90;;;;;;;;;;10345154;28;20262;-80
2023/04/01 21:30:36;;;;;;;1.95;1.85;;;;;;;;;;10357379;28;20697;-79
2023/04/01 21:35:46;;;;;;;1.98;1.88;;;;;;;;;;10355633;28;20768;-79
2023/04/01 21:40:53;;;;;;;3.85;2.45;;;;;;;;;;10343386;28;20235;-79
2023/04/01 21:46:13;;;;;;;2.42;2.10;;;;;;;;;;10375593;28;20333;-79
2023/04/01 21:51:30;;;;;;;2.22;2.13;;;;;;;;;;10353922;28;20269;-79
2023/04/01 21:56:49;;;;;;;2.53;2.42;;;;;;;;;;10348049;28;20627;-80
2023/04/01 22:02:02;;;;;;;4.10;2.17;;;;;;;;;;10350403;28;20256;-79
2023/04/01 22:07:21;;;;;;;3.20;2.40;;;;;;;;;;10360130;28;20220;-80
2023/04/01 22:12:29;;;;;;;2.80;2.60;;;;;;;;;;10353187;28;20219;-81
2023/04/01 22:17:36;;;;;;;3.00;2.78;;;;;;;;;;10349708;28;20620;-79
2023/04/01 22:22:51;;;;;;;2.88;2.47;;;;;;;;;;10364922;28;21035;-79
2023/04/01 22:28:01;;;;;;;2.25;2.15;;;;;;;;;;10369145;28;20750;-79
2023/04/01 22:33:07;;;;;;;3.65;2.13;;;;;;;;;;10358197;28;20225;-80
2023/04/01 22:38:19;;;;;;;2.60;2.40;;;;;;;;;;10363417;28;20220;-78
2023/04/01 22:43:40;;;;;;;2.58;2.47;;;;;;;;;;10355261;28;20858;-80
2023/04/01 22:48:53;;;;;;;5.68;2.45;;;;;;;;;;10347063;28;20251;-78
2023/04/01 22:54:13;;;;;;;4.78;3.38;;;;;;;;;;10333771;28;20231;-79
2023/04/01 22:59:25;;;;;;;5.13;3.28;;;;;;;;;;10335209;28;20255;-79
2023/04/01 23:04:31;;;;;;;2.78;2.58;;;;;;;;;;10330580;28;20306;-80
2023/04/01 23:09:35;;;;;;;3.85;2.30;;;;;;;;;;10358949;28;20718;-79
2023/04/01 23:14:51;;;;;;;10.45;2.83;;;;;;;;;;10369478;28;20227;-79
2023/04/01 23:19:56;;;;;;;2.70;2.20;;;;;;;;;;10367474;28;21141;-80
2023/04/01 23:25:16;;;;;;;3.22;2.40;;;;;;;;;;10333622;28;20990;-79
2023/04/01 23:30:40;;;;;;;2.45;2.20;;;;;;;;;;10369077;28;20246;-79
2023/04/01 23:35:51;;;;;;;6.25;2.67;;;;;;;;;;10351255;28;20319;-79
2023/04/01 23:40:54;;;;;;;2.83;2.72;;;;;;;;;;10329182;28;20223;-80
2023/04/01 23:45:56;;;;;;;3.17;2.88;;;;;;;;;;10340434;28;20230;-80
2023/04/01 23:50:57;;;;;;;2.53;2.42;;;;;;;;;;10341038;28;20215;-79
2023/04/01 23:55:58;;;;;;;6.72;2.90;;;;;;;;;;10327850;28;21001;-80
